Time;durP1;ratioP1;P1;durP2;ratioP2;P2;SDS_P1;SDS_P2;PMS_P1;PMS_P2;Temp;Humidity;BMP_temperature;BMP_pressure;BME280_temperature;BME280_humidity;BME280_pressure;Samples;Min_cycle;Max_cycle;Signal;HPM_P1;HPM_P2
2023/11/16 00:00:47;;;;;;;9.20;5.70;;;;;;;8.23;88.53;98232.71;106865;1262;61712;-39
2023/11/16 00:03:14;;;;;;;8.30;5.40;;;;;;;8.27;88.32;98231.38;106841;1262;59315;-39
2023/11/16 00:05:43;;;;;;;8.00;5.60;;;;;;;8.32;88.28;98235.69;106830;1262;73062;-39
2023/11/16 00:08:11;;;;;;;9.50;6.20;;;;;;;8.32;88.33;98242.70;106881;1262;65731;-39
2023/11/16 00:10:39;;;;;;;11.30;5.70;;;;;;;8.29;88.38;98241.05;106829;1262;71480;-40
2023/11/16 00:13:09;;;;;;;11.10;6.30;;;;;;;8.28;88.39;98244.80;106832;1262;61743;-39
2023/11/16 00:15:36;;;;;;;8.00;5.40;;;;;;;8.31;88.26;98245.39;106863;1262;59760;-39
2023/11/16 00:18:04;;;;;;;6.70;5.50;;;;;;;8.33;88.33;98245.95;106823;1267;73083;-39
2023/11/16 00:20:35;;;;;;;8.40;6.10;;;;;;;8.33;88.41;98246.96;106926;1262;67934;-39
2023/11/16 00:23:04;;;;;;;8.70;6.00;;;;;;;8.29;88.55;98251.08;106827;1262;72736;-39
2023/11/16 00:25:31;;;;;;;8.80;5.10;;;;;;;8.29;88.69;98251.60;106821;1262;60798;-39
2023/11/16 00:27:59;;;;;;;9.10;5.00;;;;;;;8.35;88.57;98250.13;106827;1262;59626;-39
2023/11/16 00:30:27;;;;;;;7.80;5.00;;;;;;;8.29;88.57;98237.49;106884;1262;73038;-39
2023/11/16 00:32:54;;;;;;;6.90;4.90;;;;;;;8.34;88.77;98251.98;106858;1262;67880;-39
2023/11/16 00:35:22;;;;;;;7.50;5.40;;;;;;;8.29;88.95;98254.54;106790;1264;72646;-38
2023/11/16 00:37:51;;;;;;;11.60;5.20;;;;;;;8.29;89.10;98257.57;106744;1264;62613;-39
2023/11/16 00:40:20;;;;;;;7.00;4.90;;;;;;;8.32;89.08;98255.36;106830;1262;59513;-39
2023/11/16 00:42:50;;;;;;;9.90;6.00;;;;;;;8.30;89.43;98259.49;106806;1267;73082;-39
2023/11/16 00:45:19;;;;;;;7.90;5.30;;;;;;;8.26;89.61;98261.13;106700;1262;66840;-39
2023/11/16 00:47:47;;;;;;;6.20;4.80;;;;;;;8.28;89.71;98264.25;106735;1262;72715;-39
2023/11/16 00:50:15;;;;;;;8.50;5.30;;;;;;;8.33;89.61;98265.33;106719;1262;61691;-39
2023/11/16 00:52:46;;;;;;;7.50;5.10;;;;;;;8.37;89.59;98259.58;106891;1262;59627;-39
2023/11/16 00:55:15;;;;;;;6.90;5.00;;;;;;;8.36;89.78;98260.11;106848;1262;73585;-39
2023/11/16 00:57:47;;;;;;;8.40;5.10;;;;;;;8.33;89.77;98266.70;106929;1262;67786;-39
2023/11/16 01:00:16;;;;;;;8.50;4.70;;;;;;;8.35;89.61;98268.27;106759;1262;72694;-39
2023/11/16 01:02:48;;;;;;;7.30;4.60;;;;;;;8.39;89.50;98267.61;106759;1262;61732;-39
2023/11/16 01:05:17;;;;;;;7.00;5.10;;;;;;;8.41;89.52;98265.40;106744;1262;60054;-40
2023/11/16 01:07:45;;;;;;;7.30;5.00;;;;;;;8.38;89.68;98259.11;106847;1263;73080;-40
2023/11/16 01:10:17;;;;;;;7.40;5.10;;;;;;;8.37;89.72;98260.89;106846;1262;67707;-40
2023/11/16 01:12:45;;;;;;;6.90;4.60;;;;;;;8.40;89.62;98264.01;106854;1261;72710;-40
2023/11/16 01:15:14;;;;;;;8.30;5.20;;;;;;;8.44;89.35;98269.52;106847;1263;60100;-40
2023/11/16 01:17:45;;;;;;;5.50;3.70;;;;;;;8.41;89.26;98268.88;106880;1262;60114;-40
2023/11/16 01:20:19;;;;;;;7.20;4.60;;;;;;;8.37;89.49;98272.61;106767;1263;73098;-40
2023/11/16 01:23:10;;;;;;;7.00;4.30;;;;;;;8.37;89.53;98275.70;106861;1262;67086;-40
2023/11/16 01:25:41;;;;;;;7.20;4.90;;;;;;;8.41;89.37;98277.05;106836;1262;72738;-40
2023/11/16 01:28:10;;;;;;;5.70;4.80;;;;;;;8.42;89.43;98277.73;106864;1262;59639;-40
2023/11/16 01:30:38;;;;;;;8.20;5.10;;;;;;;8.40;89.43;98277.11;106872;1262;61712;-40
2023/11/16 01:33:08;;;;;;;8.40;5.20;;;;;;;8.39;89.43;98279.27;106834;1262;73140;-40
2023/11/16 01:35:37;;;;;;;9.00;4.30;;;;;;;8.43;89.23;98277.69;106863;1263;66289;-40
2023/11/16 01:38:07;;;;;;;7.40;4.70;;;;;;;8.47;89.00;98277.34;106840;1263;73136;-40
2023/11/16 01:40:34;;;;;;;6.50;4.50;;;;;;;8.46;89.04;98280.19;106817;1266;59650;-40
2023/11/16 01:43:02;;;;;;;12.00;4.60;;;;;;;8.42;89.11;98279.69;106735;1261;59526;-40
2023/11/16 01:45:31;;;;;;;7.10;4.30;;;;;;;8.43;88.99;98285.09;106714;1262;72063;-40
2023/11/16 01:48:06;;;;;;;6.60;4.50;;;;;;;8.46;88.83;98280.34;106736;1262;66663;-40
2023/11/16 01:50:36;;;;;;;8.10;4.90;;;;;;;8.46;88.73;98277.42;106865;1262;73195;-40
2023/11/16 01:53:09;;;;;;;11.00;4.40;;;;;;;8.41;88.75;98278.52;106919;1261;59677;-39
2023/11/16 01:55:41;;;;;;;5.50;4.20;;;;;;;8.38;88.79;98275.94;106743;1261;59962;-40
2023/11/16 01:58:09;;;;;;;4.90;4.10;;;;;;;8.41;88.53;98277.44;106828;1267;71801;-40
2023/11/16 02:00:41;;;;;;;6.30;4.00;;;;;;;8.45;88.34;98279.02;106859;1261;66353;-40
2023/11/16 02:03:09;;;;;;;7.10;4.80;;;;;;;8.45;88.23;98280.88;106866;1263;73266;-40
2023/11/16 02:05:38;;;;;;;5.60;3.70;;;;;;;8.42;88.07;98279.38;106806;1263;59715;-40
2023/11/16 02:08:10;;;;;;;5.80;4.00;;;;;;;8.42;87.70;98277.91;106853;1263;59560;-40
2023/11/16 02:10:39;;;;;;;5.10;3.40;;;;;;;8.46;87.25;98282.80;106859;1263;72969;-40
2023/11/16 02:13:17;;;;;;;5.10;3.50;;;;;;;8.47;86.83;98283.66;106920;1262;66630;-40
2023/11/16 02:15:45;;;;;;;5.60;3.50;;;;;;;8.43;86.83;98291.02;106671;1262;71432;-40
2023/11/16 02:18:14;;;;;;;4.50;3.60;;;;;;;8.38;86.81;98289.35;106742;1268;60468;-40
2023/11/16 02:20:41;;;;;;;3.90;3.50;;;;;;;8.39;86.51;98295.55;106851;1262;60075;-41
2023/11/16 02:23:09;;;;;;;7.00;3.80;;;;;;;8.42;86.45;98294.12;106843;1263;73044;-40
2023/11/16 02:25:50;;;;;;;4.50;4.10;;;;;;;8.42;86.51;98290.80;106871;1263;67633;-40
2023/11/16 02:28:19;;;;;;;7.20;4.40;;;;;;;8.39;86.50;98289.21;106849;1263;71402;-40
2023/11/16 02:30:47;;;;;;;6.60;4.70;;;;;;;8.36;86.48;98287.20;106880;1263;61777;-40
2023/11/16 02:33:15;;;;;;;6.00;3.80;;;;;;;8.39;86.23;98289.45;106784;1263;59595;-40
2023/11/16 02:35:43;;;;;;;5.90;4.00;;;;;;;8.40;86.02;98286.77;106846;1263;72173;-40
2023/11/16 02:38:12;;;;;;;5.70;4.30;;;;;;;8.36;86.10;98293.89;106872;1262;67576;-40
2023/11/16 02:40:41;;;;;;;5.70;4.40;;;;;;;8.31;86.39;98295.30;106879;1261;72245;-40
2023/11/16 02:43:09;;;;;;;4.50;4.10;;;;;;;8.28;86.42;98296.79;106908;1264;60432;-40
2023/11/16 02:45:36;;;;;;;4.80;4.20;;;;;;;8.31;86.26;98294.61;106843;1263;59372;-39
2023/11/16 02:48:06;;;;;;;8.40;4.10;;;;;;;8.32;86.10;98301.42;106875;1263;71473;-40
2023/11/16 02:50:34;;;;;;;5.40;4.40;;;;;;;8.26;86.18;98301.48;106914;1263;66616;-40
2023/11/16 02:53:03;;;;;;;7.60;4.70;;;;;;;8.19;86.34;98307.11;106836;1262;72679;-40
2023/11/16 02:55:34;;;;;;;4.90;3.80;;;;;;;8.15;86.36;98304.29;106849;1263;61697;-40
2023/11/16 02:58:02;;;;;;;6.50;4.20;;;;;;;8.17;86.16;98304.55;106867;1263;60129;-40
2023/11/16 03:00:31;;;;;;;4.80;4.10;;;;;;;8.18;86.27;98308.72;106839;1263;73088;-39
2023/11/16 03:03:02;;;;;;;;;;;;;;;8.14;86.46;98311.67;106881;1264;68745;-40
2023/11/16 03:05:32;;;;;;;8.00;4.60;;;;;;;8.09;86.62;98311.77;106878;1263;71367;-40
2023/11/16 03:08:00;;;;;;;7.50;4.70;;;;;;;7.98;86.95;98303.00;106818;1263;60450;-39
2023/11/16 03:10:28;;;;;;;5.60;4.30;;;;;;;8.08;87.07;98316.63;106764;1262;60329;-40
2023/11/16 03:12:56;;;;;;;5.50;4.40;;;;;;;8.10;87.24;98317.19;106730;1263;73797;-40
2023/11/16 03:15:26;;;;;;;5.70;4.70;;;;;;;8.08;87.55;98320.17;106766;1263;66512;-40
2023/11/16 03:17:56;;;;;;;7.40;4.90;;;;;;;8.06;88.02;98321.52;106735;1266;72705;-40
2023/11/16 03:20:25;;;;;;;7.30;4.80;;;;;;;8.06;88.09;98319.31;106754;1263;61776;-40
2023/11/16 03:22:53;;;;;;;6.90;5.00;;;;;;;8.11;88.04;98318.81;106760;1261;60473;-40
2023/11/16 03:25:21;;;;;;;5.00;4.30;;;;;;;8.11;88.21;98317.73;106722;1263;72635;-40
2023/11/16 03:27:49;;;;;;;8.40;5.50;;;;;;;8.07;88.26;98319.23;106808;1261;67598;-40
2023/11/16 03:30:16;;;;;;;5.20;4.70;;;;;;;8.03;88.23;98322.74;106839;1262;72697;-40
2023/11/16 03:32:47;;;;;;;6.30;5.10;;;;;;;8.07;88.09;98331.11;106826;1263;61697;-40
2023/11/16 03:35:15;;;;;;;10.60;5.30;;;;;;;8.14;88.26;98330.50;106888;1263;60358;-40
2023/11/16 03:37:46;;;;;;;8.90;5.60;;;;;;;8.12;88.24;98320.91;106871;1263;72617;-40
2023/11/16 03:40:13;;;;;;;8.50;5.50;;;;;;;8.18;88.44;98335.17;106849;1263;67687;-40
2023/11/16 03:42:42;;;;;;;6.50;5.20;;;;;;;8.20;88.25;98336.89;106833;1263;70748;-40
2023/11/16 03:45:11;;;;;;;7.00;4.60;;;;;;;8.24;87.86;98337.11;106832;1263;60919;-40
2023/11/16 03:47:40;;;;;;;5.10;4.50;;;;;;;8.27;87.57;98335.66;106826;1262;60345;-39
2023/11/16 03:50:10;;;;;;;8.50;4.90;;;;;;;8.23;87.67;98334.08;106848;1263;73841;-40
2023/11/16 03:52:39;;;;;;;9.00;4.90;;;;;;;8.21;87.78;98337.70;107008;1263;66496;-40
2023/11/16 03:55:07;;;;;;;5.90;4.60;;;;;;;8.23;87.51;98344.48;106798;1263;73171;-40
2023/11/16 03:57:35;;;;;;;8.20;4.30;;;;;;;8.26;87.06;98348.85;106700;1268;60447;-40
2023/11/16 04:00:04;;;;;;;5.90;3.70;;;;;;;8.24;86.54;98351.23;106748;1262;60592;-40
2023/11/16 04:02:38;;;;;;;4.60;3.50;;;;;;;8.19;85.62;98353.08;106782;1262;72413;-40
2023/11/16 04:05:06;;;;;;;3.40;2.80;;;;;;;8.13;84.80;98363.13;106810;1264;68099;-40
2023/11/16 04:07:34;;;;;;;3.40;2.70;;;;;;;8.13;83.92;98361.57;106852;1262;72695;-40
2023/11/16 04:10:04;;;;;;;4.50;2.50;;;;;;;8.15;83.24;98362.05;106721;1263;60585;-40
2023/11/16 04:12:32;;;;;;;;;;;;;;;8.10;82.36;98361.39;106871;1262;60332;-40
2023/11/16 04:15:01;;;;;;;3.00;2.30;;;;;;;8.01;82.09;98365.74;106706;1262;73914;-40
2023/11/16 04:17:29;;;;;;;2.50;2.10;;;;;;;7.94;82.25;98367.66;106810;1262;66638;-40
2023/11/16 04:19:57;;;;;;;3.70;2.40;;;;;;;7.94;82.05;98372.20;106823;1266;71999;-40
2023/11/16 04:22:24;;;;;;;3.30;1.90;;;;;;;7.94;81.61;98379.14;106815;1262;60459;-40
2023/11/16 04:24:52;;;;;;;2.40;2.10;;;;;;;7.86;80.19;98379.03;106806;1262;59600;-40
2023/11/16 04:27:20;;;;;;;2.00;1.80;;;;;;;7.76;79.90;98385.07;106821;1262;73906;-40
2023/11/16 04:29:48;;;;;;;2.00;1.50;;;;;;;7.66;78.73;98385.84;106890;1262;67563;-40
2023/11/16 04:32:16;;;;;;;1.30;1.20;;;;;;;7.62;77.91;98386.55;106807;1263;72700;-40
2023/11/16 04:34:44;;;;;;;2.10;1.10;;;;;;;7.60;77.08;98391.77;106831;1264;60127;-40
2023/11/16 04:37:12;;;;;;;3.00;1.30;;;;;;;7.53;76.58;98389.42;106825;1267;60329;-40
2023/11/16 04:39:39;;;;;;;1.80;1.40;;;;;;;7.45;76.86;98391.22;106830;1262;73908;-40
2023/11/16 04:42:08;;;;;;;1.40;1.10;;;;;;;7.36;76.20;98392.23;106855;1262;66451;-40
2023/11/16 04:44:35;;;;;;;1.50;1.10;;;;;;;7.31;75.75;98397.34;107047;1259;72694;-40
2023/11/16 04:47:05;;;;;;;1.50;1.20;;;;;;;7.30;75.84;98404.40;107025;1265;60294;-40
2023/11/16 04:49:33;;;;;;;1.60;1.10;;;;;;;7.22;75.56;98407.88;107045;1259;60366;-40
2023/11/16 04:52:01;;;;;;;1.50;1.20;;;;;;;7.12;75.83;98409.48;107032;1259;73871;-40
2023/11/16 04:54:29;;;;;;;1.40;0.90;;;;;;;7.04;76.15;98406.57;107044;1259;66430;-40
2023/11/16 04:56:57;;;;;;;1.20;0.80;;;;;;;7.02;76.23;98408.38;107013;1259;72711;-40
2023/11/16 04:59:24;;;;;;;1.10;0.90;;;;;;;7.02;76.37;98407.70;106900;1260;60323;-40
2023/11/16 05:01:52;;;;;;;1.10;1.00;;;;;;;6.98;76.68;98407.46;106950;1259;60367;-40
2023/11/16 05:04:20;;;;;;;1.10;0.90;;;;;;;6.89;76.63;98407.16;106215;1259;1002957;-40
2023/11/16 05:06:47;;;;;;;1.30;1.00;;;;;;;6.81;77.06;98413.09;106974;1259;67579;-40
2023/11/16 05:09:15;;;;;;;4.50;1.30;;;;;;;6.79;77.39;98415.96;106905;1259;71814;-38
2023/11/16 05:11:43;;;;;;;1.40;1.00;;;;;;;6.80;77.52;98414.83;107011;1262;60517;-39
2023/11/16 05:14:10;;;;;;;1.70;0.90;;;;;;;6.76;77.75;98421.15;106989;1259;60495;-39
2023/11/16 05:16:38;;;;;;;1.20;1.00;;;;;;;6.71;78.03;98420.06;107077;1259;72595;-40
2023/11/16 05:19:06;;;;;;;0.80;0.80;;;;;;;6.68;78.14;98422.08;106949;1259;67678;-40
2023/11/16 05:21:33;;;;;;;2.90;0.80;;;;;;;6.68;77.45;98423.84;107019;1259;72715;-39
2023/11/16 05:24:01;;;;;;;1.90;0.90;;;;;;;6.48;77.48;98398.00;107023;1263;61152;-39
2023/11/16 05:26:30;;;;;;;1.10;0.90;;;;;;;6.70;77.55;98432.58;107032;1259;60435;-39
2023/11/16 05:28:58;;;;;;;1.50;1.00;;;;;;;6.68;77.52;98437.32;107032;1259;73118;-39
2023/11/16 05:31:25;;;;;;;3.50;1.30;;;;;;;6.66;77.39;98440.89;107021;1259;67744;-39
2023/11/16 05:33:53;;;;;;;2.00;0.70;;;;;;;6.67;76.72;98444.67;107036;1264;72819;-39
2023/11/16 05:36:21;;;;;;;2.20;0.60;;;;;;;6.68;76.58;98446.33;106996;1265;60540;-38
2023/11/16 05:38:49;;;;;;;5.40;0.90;;;;;;;6.58;76.70;98439.97;107040;1259;60433;-39
2023/11/16 05:41:18;;;;;;;0.70;0.70;;;;;;;6.60;76.78;98454.25;107022;1260;73863;-39
2023/11/16 05:43:47;;;;;;;1.30;0.70;;;;;;;6.54;76.44;98457.44;107032;1263;67926;-39
2023/11/16 05:46:15;;;;;;;0.70;0.60;;;;;;;6.54;76.47;98456.73;107049;1259;71815;-39
2023/11/16 05:48:42;;;;;;;1.40;1.00;;;;;;;6.57;76.34;98460.19;107113;1259;59584;-39
2023/11/16 05:51:11;;;;;;;1.60;0.70;;;;;;;6.53;76.22;98463.34;107030;1259;60513;-39
2023/11/16 05:53:39;;;;;;;0.60;0.60;;;;;;;6.48;76.51;98466.84;107057;1259;73862;-39
2023/11/16 05:56:07;;;;;;;0.90;0.80;;;;;;;6.43;76.52;98467.98;107033;1259;67640;-39
2023/11/16 05:58:35;;;;;;;0.90;0.80;;;;;;;6.43;76.84;98474.14;107055;1261;71407;-38
2023/11/16 06:01:03;;;;;;;0.90;0.50;;;;;;;6.44;76.74;98472.39;107007;1259;59541;-38
2023/11/16 06:03:32;;;;;;;1.20;0.70;;;;;;;6.40;76.96;98479.00;107091;1260;60306;-39
2023/11/16 06:06:00;;;;;;;0.60;0.60;;;;;;;6.36;77.05;98483.52;107050;1259;73920;-38
2023/11/16 06:08:29;;;;;;;0.80;0.70;;;;;;;6.31;77.20;98486.95;107004;1263;67579;-38
2023/11/16 06:10:57;;;;;;;0.70;0.60;;;;;;;6.31;77.29;98488.48;107026;1265;72698;-39
2023/11/16 06:13:26;;;;;;;0.60;0.50;;;;;;;6.33;77.35;98487.16;107078;1261;60102;-39
2023/11/16 06:15:54;;;;;;;1.10;0.60;;;;;;;6.31;77.63;98491.55;107078;1259;60446;-39
2023/11/16 06:18:24;;;;;;;0.90;0.60;;;;;;;6.28;78.39;98488.59;107047;1265;73910;-39
2023/11/16 06:20:52;;;;;;;;;;;;;;;6.22;79.35;98492.14;107077;1259;68917;-39
2023/11/16 06:23:19;;;;;;;0.70;0.70;;;;;;;6.20;79.99;98490.16;107019;1259;71431;-38
2023/11/16 06:25:47;;;;;;;0.60;0.60;;;;;;;6.17;80.82;98495.64;107025;1264;60336;-39
2023/11/16 06:28:14;;;;;;;2.90;0.80;;;;;;;6.11;81.55;98494.05;107046;1258;60397;-39
2023/11/16 06:30:42;;;;;;;0.70;0.50;;;;;;;6.01;81.95;98496.29;107014;1260;73912;-39
2023/11/16 06:33:10;;;;;;;0.90;0.40;;;;;;;5.89;81.62;98493.15;107024;1259;67716;-39
2023/11/16 06:35:38;;;;;;;1.40;0.60;;;;;;;5.82;81.34;98498.97;107010;1264;72700;-39
2023/11/16 06:38:09;;;;;;;0.70;0.50;;;;;;;5.75;81.16;98499.25;107030;1259;60494;-39
2023/11/16 06:40:36;;;;;;;1.20;0.40;;;;;;;5.66;81.32;98506.05;107059;1259;60373;-39
2023/11/16 06:43:04;;;;;;;1.70;0.50;;;;;;;5.51;80.85;98495.98;107020;1265;72876;-39
2023/11/16 06:45:37;;;;;;;0.80;0.50;;;;;;;5.55;80.67;98506.08;107001;1259;67638;-39
2023/11/16 06:48:06;;;;;;;0.40;0.40;;;;;;;5.54;80.66;98508.57;107042;1265;72732;-39
2023/11/16 06:50:34;;;;;;;1.80;0.40;;;;;;;5.49;80.73;98515.20;107047;1259;60455;-40
2023/11/16 06:53:03;;;;;;;1.40;0.60;;;;;;;5.43;80.69;98518.05;107048;1259;60070;-40
2023/11/16 06:55:32;;;;;;;2.80;0.30;;;;;;;5.43;80.68;98523.65;107015;1264;74288;-40
2023/11/16 06:58:00;;;;;;;0.80;0.60;;;;;;;5.44;80.25;98520.46;107036;1263;66818;-40
2023/11/16 07:00:30;;;;;;;1.10;0.60;;;;;;;5.43;79.99;98523.52;106896;1264;72716;-40
2023/11/16 07:02:58;;;;;;;0.60;0.60;;;;;;;5.41;79.66;98528.90;106941;1264;60336;-40
2023/11/16 07:05:26;;;;;;;0.90;0.70;;;;;;;5.36;78.43;98532.48;106925;1263;60312;-40
2023/11/16 07:07:53;;;;;;;0.80;0.60;;;;;;;5.38;78.50;98535.97;106912;1259;73945;-40
2023/11/16 07:10:21;;;;;;;0.50;0.50;;;;;;;5.44;78.41;98534.13;106992;1263;67584;-40
2023/11/16 07:12:49;;;;;;;0.50;0.50;;;;;;;5.46;78.01;98536.87;106960;1264;72750;-40
2023/11/16 07:15:17;;;;;;;1.30;0.60;;;;;;;5.43;77.34;98534.80;106968;1259;60330;-40
2023/11/16 07:17:45;;;;;;;0.40;0.40;;;;;;;5.37;75.91;98535.55;106932;1260;60431;-40
2023/11/16 07:20:13;;;;;;;0.50;0.40;;;;;;;5.33;75.93;98541.91;106874;1261;73925;-40
2023/11/16 07:22:41;;;;;;;5.90;0.40;;;;;;;5.36;75.63;98545.22;106975;1259;67928;-40
2023/11/16 07:25:09;;;;;;;0.60;0.50;;;;;;;5.36;75.38;98543.60;106996;1264;72773;-40
2023/11/16 07:27:40;;;;;;;0.40;0.30;;;;;;;5.30;75.15;98545.06;107006;1264;61187;-40
2023/11/16 07:30:09;;;;;;;0.60;0.40;;;;;;;5.24;75.18;98545.21;107041;1260;60989;-40
2023/11/16 07:32:37;;;;;;;0.50;0.50;;;;;;;5.19;74.82;98549.22;107047;1264;72644;-40
2023/11/16 07:35:14;;;;;;;0.60;0.50;;;;;;;5.17;74.21;98551.95;107091;1261;66301;-40
2023/11/16 07:37:46;;;;;;;1.70;0.40;;;;;;;5.17;73.80;98553.85;106898;1263;72768;-39
2023/11/16 07:40:15;;;;;;;0.70;0.50;;;;;;;5.13;73.67;98553.19;107037;1259;60343;-39
2023/11/16 07:42:44;;;;;;;0.70;0.40;;;;;;;5.08;73.76;98558.67;107137;1261;60353;-39
2023/11/16 07:45:12;;;;;;;1.90;0.50;;;;;;;5.06;73.81;98565.91;107123;1263;73878;-38
2023/11/16 07:47:43;;;;;;;3.10;0.40;;;;;;;5.06;73.88;98565.13;107061;1259;67930;-39
2023/11/16 07:50:12;;;;;;;1.50;0.50;;;;;;;5.11;73.50;98567.58;107064;1263;73033;-39
2023/11/16 07:52:44;;;;;;;0.50;0.50;;;;;;;5.15;73.20;98568.45;107068;1261;60066;-39
2023/11/16 07:55:21;;;;;;;0.40;0.40;;;;;;;5.14;73.32;98580.70;106994;1264;60343;-39
2023/11/16 07:57:50;;;;;;;3.20;0.60;;;;;;;5.14;73.47;98584.31;106982;1260;73920;-39
2023/11/16 08:00:25;;;;;;;0.90;0.70;;;;;;;5.16;73.96;98590.90;107068;1261;68090;-39
2023/11/16 08:05:43;;;;;;;0.50;0.50;;;;;;;5.31;72.92;98593.16;106944;1264;60384;-39
2023/11/16 08:08:12;;;;;;;0.50;0.40;;;;;;;5.30;72.25;98598.41;106914;1260;59220;-39
2023/11/16 08:10:43;;;;;;;0.40;0.30;;;;;;;5.22;71.44;98602.59;107014;1258;73903;-39
2023/11/16 08:13:11;;;;;;;0.50;0.50;;;;;;;5.12;70.88;98596.91;107074;1261;68476;-40
2023/11/16 08:15:42;;;;;;;0.80;0.50;;;;;;;5.02;70.90;98602.58;107018;1264;71526;-40
2023/11/16 08:18:12;;;;;;;0.30;0.30;;;;;;;5.00;70.88;98609.71;107015;1263;60911;-39
2023/11/16 08:20:41;;;;;;;0.30;0.30;;;;;;;5.00;71.08;98614.54;107081;1263;60431;-40
2023/11/16 08:23:09;;;;;;;0.30;0.30;;;;;;;4.99;71.29;98621.05;107056;1258;73845;-40
2023/11/16 08:25:38;;;;;;;0.40;0.40;;;;;;;4.97;70.86;98626.73;107044;1261;66920;-40
2023/11/16 08:28:08;;;;;;;0.30;0.30;;;;;;;4.96;70.89;98626.23;107034;1260;72676;-39
2023/11/16 08:30:37;;;;;;;0.60;0.40;;;;;;;4.91;71.05;98632.39;107003;1261;60482;-39
2023/11/16 08:33:07;;;;;;;0.40;0.40;;;;;;;4.93;71.43;98634.07;107022;1259;60473;-39
2023/11/16 08:35:37;;;;;;;;;;;;;;;4.98;71.48;98639.65;107035;1258;73938;-40
2023/11/16 08:38:13;;;;;;;1.40;0.50;;;;;;;4.97;71.55;98639.41;107029;1260;67192;-40
2023/11/16 08:40:43;;;;;;;0.40;0.40;;;;;;;4.94;71.64;98636.33;106880;1265;72695;-39
2023/11/16 08:43:11;;;;;;;0.50;0.50;;;;;;;4.92;71.99;98637.64;106996;1260;60476;-39
2023/11/16 08:45:39;;;;;;;0.60;0.50;;;;;;;4.92;72.55;98640.34;106916;1264;60299;-39
2023/11/16 08:48:08;;;;;;;1.10;0.50;;;;;;;4.99;72.44;98641.05;107035;1260;76044;-39
2023/11/16 08:50:42;;;;;;;1.50;0.50;;;;;;;5.04;72.51;98638.29;106973;1263;67631;-39
2023/11/16 08:53:12;;;;;;;2.40;1.00;;;;;;;5.03;72.84;98647.88;106930;1261;72716;-39
2023/11/16 08:55:41;;;;;;;0.90;0.80;;;;;;;5.04;73.52;98648.34;106967;1259;61181;-39
2023/11/16 08:58:08;;;;;;;0.70;0.60;;;;;;;5.04;73.69;98655.71;107032;1263;60362;-40
2023/11/16 09:00:41;;;;;;;0.90;0.60;;;;;;;5.01;73.96;98662.99;106963;1260;74825;-39
2023/11/16 09:03:09;;;;;;;0.70;0.70;;;;;;;4.99;73.36;98663.85;106912;1264;67807;-39
2023/11/16 09:05:39;;;;;;;0.70;0.60;;;;;;;4.89;72.93;98667.63;106873;1261;73764;-39
2023/11/16 09:08:10;;;;;;;0.40;0.40;;;;;;;4.75;72.65;98665.67;106966;1260;60538;-39
2023/11/16 09:10:41;;;;;;;1.50;0.70;;;;;;;4.65;73.07;98671.88;107027;1264;61119;-40
2023/11/16 09:13:09;;;;;;;0.50;0.50;;;;;;;4.57;73.00;98667.05;107041;1260;74358;-39
2023/11/16 09:15:38;;;;;;;0.60;0.60;;;;;;;4.59;73.21;98665.04;107014;1261;68372;-39
2023/11/16 09:18:06;;;;;;;1.40;0.80;;;;;;;4.65;72.92;98664.46;107006;1264;72696;-40
2023/11/16 09:20:35;;;;;;;0.70;0.70;;;;;;;4.65;72.76;98664.14;106985;1261;59228;-40
2023/11/16 09:23:06;;;;;;;1.20;0.80;;;;;;;4.64;72.69;98662.04;107018;1261;62146;-39
2023/11/16 09:25:36;;;;;;;1.00;0.80;;;;;;;4.61;72.78;98662.17;107028;1264;72770;-39
2023/11/16 09:28:06;;;;;;;4.60;1.10;;;;;;;4.60;73.18;98665.22;107004;1263;66372;-39
2023/11/16 09:30:38;;;;;;;0.80;0.80;;;;;;;4.66;72.73;98663.41;106983;1259;70717;-39
2023/11/16 09:33:09;;;;;;;0.90;0.70;;;;;;;4.68;72.80;98667.40;107041;1259;60334;-40
2023/11/16 09:35:38;;;;;;;1.00;0.80;;;;;;;4.66;72.44;98669.16;107075;1264;60463;-38
2023/11/16 09:38:10;;;;;;;1.00;0.70;;;;;;;4.63;72.52;98668.84;107134;1258;73983;-39
2023/11/16 09:40:38;;;;;;;0.80;0.80;;;;;;;4.61;72.74;98665.23;107064;1263;66611;-39
2023/11/16 09:43:17;;;;;;;0.70;0.70;;;;;;;4.62;72.41;98669.95;107113;1261;71470;-39
2023/11/16 09:45:48;;;;;;;0.60;0.50;;;;;;;4.60;72.29;98674.96;107056;1261;60451;-39
2023/11/16 09:48:22;;;;;;;0.60;0.60;;;;;;;4.55;72.76;98680.00;107074;1260;61359;-39
2023/11/16 09:50:53;;;;;;;1.20;1.00;;;;;;;4.49;72.91;98684.06;106956;1258;73925;-39
2023/11/16 09:53:27;;;;;;;0.90;0.70;;;;;;;4.48;73.23;98686.61;106890;1260;68198;-39
2023/11/16 09:55:57;;;;;;;0.80;0.50;;;;;;;4.49;73.40;98685.73;106958;1260;74960;-39
2023/11/16 09:58:27;;;;;;;1.30;0.60;;;;;;;4.56;73.36;98679.35;106996;1260;60440;-39
2023/11/16 10:00:58;;;;;;;0.60;0.60;;;;;;;4.59;73.23;98680.02;106924;1259;60370;-39
2023/11/16 10:03:36;;;;;;;0.90;0.60;;;;;;;4.59;73.03;98681.54;107044;1258;73931;-39
2023/11/16 10:06:06;;;;;;;0.70;0.60;;;;;;;4.51;72.89;98665.02;107010;1260;67945;-39
2023/11/16 10:08:34;;;;;;;1.50;0.70;;;;;;;4.57;72.73;98681.23;106906;1261;73102;-39
2023/11/16 10:11:05;;;;;;;0.70;0.70;;;;;;;4.59;72.72;98686.90;106896;1266;60444;-39
2023/11/16 10:13:34;;;;;;;0.90;0.60;;;;;;;4.66;72.68;98687.34;106956;1261;60153;-39
2023/11/16 10:16:09;;;;;;;1.30;0.60;;;;;;;4.69;72.46;98685.67;106956;1261;76058;-39
2023/11/16 10:18:40;;;;;;;0.70;0.60;;;;;;;4.63;71.47;98681.20;106999;1260;67620;-39
2023/11/16 10:21:08;;;;;;;0.80;0.80;;;;;;;4.54;71.88;98685.95;106900;1260;74825;-39
2023/11/16 10:23:36;;;;;;;0.60;0.60;;;;;;;4.47;72.11;98683.38;107002;1262;60505;-39
2023/11/16 10:26:06;;;;;;;1.10;0.60;;;;;;;4.50;72.24;98682.85;107003;1259;60256;-39
2023/11/16 10:28:34;;;;;;;0.70;0.60;;;;;;;4.51;72.32;98687.34;107046;1260;73963;-39
2023/11/16 10:31:02;;;;;;;0.70;0.70;;;;;;;4.47;72.62;98685.75;107059;1260;67666;-39
2023/11/16 10:33:30;;;;;;;0.80;0.80;;;;;;;4.43;72.68;98686.44;107069;1260;73556;-39
2023/11/16 10:36:01;;;;;;;1.10;0.60;;;;;;;4.39;72.97;98693.93;107091;1261;60573;-39
2023/11/16 10:38:29;;;;;;;0.70;0.70;;;;;;;4.38;73.06;98703.92;107157;1260;60443;-39
2023/11/16 10:40:57;;;;;;;0.60;0.60;;;;;;;4.38;73.26;98699.51;107084;1261;75063;-39
2023/11/16 10:43:26;;;;;;;1.00;0.60;;;;;;;4.37;73.61;98701.67;107030;1260;67601;-39
2023/11/16 10:46:00;;;;;;;0.50;0.50;;;;;;;4.34;73.81;98710.73;106991;1263;70594;-39
2023/11/16 10:48:29;;;;;;;0.70;0.70;;;;;;;4.32;73.93;98714.32;106875;1264;60578;-39
2023/11/16 10:51:00;;;;;;;0.70;0.50;;;;;;;4.31;74.09;98715.35;107154;1255;60412;-39
2023/11/16 10:53:34;;;;;;;1.30;0.70;;;;;;;4.34;74.27;98716.45;107150;1260;74018;-39
2023/11/16 10:56:04;;;;;;;1.60;0.90;;;;;;;4.32;74.20;98718.85;107153;1260;68054;-39
2023/11/16 10:58:33;;;;;;;0.80;0.80;;;;;;;4.26;74.72;98720.40;107180;1256;72706;-39
2023/11/16 11:01:07;;;;;;;0.80;0.70;;;;;;;4.19;75.43;98720.77;107095;1257;60388;-38
2023/11/16 11:03:38;;;;;;;0.70;0.70;;;;;;;4.18;75.69;98726.42;107157;1257;60425;-38
2023/11/16 11:06:07;;;;;;;1.30;0.70;;;;;;;4.21;75.59;98728.49;107160;1258;72736;-39
2023/11/16 11:08:35;;;;;;;0.80;0.80;;;;;;;4.24;75.63;98726.00;107161;1255;67893;-39
2023/11/16 11:11:04;;;;;;;1.10;0.80;;;;;;;4.22;75.72;98728.38;107130;1260;168999;-39
2023/11/16 11:14:25;;;;;;;1.30;0.70;;;;;;;4.17;75.89;98729.70;104213;1295;600304;-39
2023/11/16 11:16:54;;;;;;;1.40;0.70;;;;;;;4.12;75.84;98731.73;107086;1257;59866;-39
2023/11/16 11:19:31;;;;;;;1.20;0.90;;;;;;;4.09;76.18;98718.30;107086;1258;60041;-39
2023/11/16 11:22:04;;;;;;;0.90;0.80;;;;;;;4.20;75.54;98728.20;107182;1257;71026;-39
2023/11/16 11:24:45;;;;;;;0.70;0.70;;;;;;;4.16;75.38;98723.52;107077;1262;69788;-39
2023/11/16 11:27:13;;;;;;;3.70;0.80;;;;;;;4.10;75.49;98728.61;107134;1257;194745;-39
2023/11/16 11:29:42;;;;;;;1.10;0.90;;;;;;;4.06;75.70;98733.98;107301;1256;60117;-39
2023/11/16 11:32:26;;;;;;;0.60;0.60;;;;;;;4.09;75.55;98733.98;107398;1257;61119;-39
2023/11/16 11:34:53;;;;;;;1.60;1.00;;;;;;;4.13;75.45;98739.21;107246;1259;71410;-39
2023/11/16 11:37:21;;;;;;;0.80;0.70;;;;;;;4.12;75.45;98740.98;107163;1257;68969;-39
2023/11/16 11:39:52;;;;;;;0.80;0.80;;;;;;;4.07;74.93;98739.60;107424;1257;72467;-39
2023/11/16 11:42:24;;;;;;;0.60;0.60;;;;;;;4.02;75.44;98738.67;107388;1256;59720;-39
2023/11/16 11:44:53;;;;;;;0.70;0.70;;;;;;;4.03;75.60;98747.13;107383;1259;62170;-38
2023/11/16 11:47:21;;;;;;;1.00;0.90;;;;;;;4.09;75.73;98743.95;107362;1256;71859;-39